San Acacia, NM (87831)

10:20 PM MDT on September 04, 2015 (GMT -0600)
Community Road | | Change Station
CLOSE
Current Station
Personal Weather Station
Location: Polvadera, NM
Elevation: 4645 ft
Nearby Weather Stations

Elev 4645 ft 34.20 °N, 106.91 °W | Updated 1 second ago

Overcast
Overcast
65.9 °F
Feels Like 65.9 °F
N
0.0
Wind Variable Wind from NNE
Gusts 0.7 mph

Today
High -- | Low -- °F
--% Chance of Precip.
Yesterday
High -- | Low -- °F
Precip. -- in
6:43 AM 7:29 PM
Waning Gibbous, 53% visible
Pressure 30.12 in
Visibility 10.0 miles
Clouds Overcast 11000 ft
Dew Point 61 °F
Humidity 84%
Rainfall 0.05 in
Snow Depth Not available.
UV 0 out of 12
Pollen 6.20 out of 12
Air Quality Not available.
Flu Activity Not available.
METAR KONM 050415Z AUTO 15003KT 10SM OVC110 19/15 A3012 RMK AO2 T01920153
Pressure 30.12 in
Visibility 10.0 miles
Clouds Overcast 11000 ft
Dew Point 61 °F
Humidity 84%
Rainfall 0.05 in
Snow Depth Not available.
UV 0 out of 12
Pollen 6.20 out of 12
Air Quality Not available.
Flu Activity Not available.
METAR KONM 050415Z AUTO 15003KT 10SM OVC110 19/15 A3012 RMK AO2 T01920153

10-Day Weather Forecast

×

Almanac

Astronomy

Sep. 04, 2015 Rise Set
Actual Time
Civil Twilight
Nautical Twilight
Astronomical Twilight
Moon
Length of Visible Light
Length of Day
Tomorrow will be .
, % of the Moon is Illuminated

Today's Extremes

State Highs State Lows

Community

WunderPhotos

Upload Photos

1,852,423 photos uploaded!

WunderBlogs® & News

Nearby

Air Quality

  Air Quality AQ Index Pollutant
Not available.

Snow Depth

Station Depth Elevation

Earthquake Activity

City Distance Mag. Time & Date
Minimum magnitude displayed is 2.5.

Coastal Water Temperatures

Place Temperature

Stations

Nearby Weather Stations

Station Location Temp. Windchill Dew Point Humidity Wind Precip. Elev Updated Type